Time,TemperatureF,DewpointF,PressureIn,WindDirection,WindDirectionDegrees,WindSpeedMPH,WindSpeedGustMPH,Humidity,HourlyPrecipIn,Conditions,Clouds,dailyrainin,SoftwareType,DateUTC
2013-06-04 00:00:00,40.0,18.0,-100.00,North,6,5.0,11.0,40,-99.99,,,-99.99,,2013-06-04 06:00:00,
2013-06-04 00:42:00,40.0,18.0,-100.00,North,6,5.0,11.0,40,-99.99,,,-99.99,,2013-06-04 06:42:00,
2013-06-04 00:52:00,40.0,18.0,-100.00,North,6,5.0,11.0,40,-99.99,,,-99.99,,2013-06-04 06:52:00,
2013-06-04 01:00:00,40.0,10.0,-100.00,West,265,6.0,13.0,29,-99.99,,,-99.99,,2013-06-04 07:00:00,
2013-06-04 01:42:00,40.0,10.0,-100.00,West,265,6.0,13.0,29,-99.99,,,-99.99,,2013-06-04 07:42:00,
2013-06-04 01:52:00,40.0,10.0,-100.00,West,265,6.0,13.0,29,-99.99,,,-99.99,,2013-06-04 07:52:00,
2013-06-04 02:00:00,39.0,9.0,-100.00,WNW,285,9.0,13.0,28,-99.99,,,-99.99,,2013-06-04 08:00:00,
2013-06-04 02:42:00,39.0,9.0,-100.00,WNW,285,9.0,13.0,28,-99.99,,,-99.99,,2013-06-04 08:42:00,
2013-06-04 02:52:00,39.0,9.0,-100.00,WNW,285,9.0,13.0,28,-99.99,,,-99.99,,2013-06-04 08:52:00,
2013-06-04 07:00:00,39.0,11.0,-100.00,SW,227,10.0,24.0,30,-99.99,,,-99.99,,2013-06-04 13:00:00,
2013-06-04 07:42:00,39.0,11.0,-100.00,SW,227,10.0,24.0,30,-99.99,,,-99.99,,2013-06-04 13:42:00,
2013-06-04 07:52:00,39.0,11.0,-100.00,SW,227,10.0,24.0,30,-99.99,,,-99.99,,2013-06-04 13:52:00,
2013-06-04 08:00:00,42.0,7.0,-100.00,WSW,256,11.0,26.0,23,-99.99,,,-99.99,,2013-06-04 14:00:00,
2013-06-04 08:43:00,42.0,7.0,-100.00,WSW,256,11.0,26.0,23,-99.99,,,-99.99,,2013-06-04 14:43:00,
2013-06-04 08:52:00,42.0,7.0,-100.00,WSW,256,11.0,26.0,23,-99.99,,,-99.99,,2013-06-04 14:52:00,
2013-06-04 11:00:00,46.0,17.0,-100.00,WSW,253,16.0,39.0,31,-99.99,,,-99.99,,2013-06-04 17:00:00,
2013-06-04 11:42:00,46.0,17.0,-100.00,WSW,253,16.0,39.0,31,-99.99,,,-99.99,,2013-06-04 17:42:00,
2013-06-04 11:52:00,46.0,17.0,-100.00,WSW,253,16.0,39.0,31,-99.99,,,-99.99,,2013-06-04 17:52:00,
2013-06-04 12:00:00,47.0,19.0,-100.00,West,264,15.0,35.0,32,-99.99,,,-99.99,,2013-06-04 18:00:00,
2013-06-04 12:42:00,47.0,19.0,-100.00,West,264,15.0,35.0,32,-99.99,,,-99.99,,2013-06-04 18:42:00,
2013-06-04 12:53:00,47.0,19.0,-100.00,West,264,15.0,35.0,32,-99.99,,,-99.99,,2013-06-04 18:53:00,
2013-06-04 13:00:00,47.0,19.0,-100.00,WSW,251,18.0,39.0,32,-99.99,,,-99.99,,2013-06-04 19:00:00,
2013-06-04 13:42:00,47.0,19.0,-100.00,WSW,251,18.0,39.0,32,-99.99,,,-99.99,,2013-06-04 19:42:00,
2013-06-04 13:52:00,47.0,19.0,-100.00,WSW,251,18.0,39.0,32,-99.99,,,-99.99,,2013-06-04 19:52:00,
2013-06-04 14:00:00,47.0,20.0,-100.00,WSW,255,18.0,43.0,33,-99.99,,,-99.99,,2013-06-04 20:00:00,
2013-06-04 14:42:00,47.0,20.0,-100.00,WSW,255,18.0,43.0,33,-99.99,,,-99.99,,2013-06-04 20:42:00,
2013-06-04 14:53:00,47.0,20.0,-100.00,WSW,255,18.0,43.0,33,-99.99,,,-99.99,,2013-06-04 20:53:00,
2013-06-04 15:00:00,48.0,20.0,-100.00,West,264,16.0,39.0,33,-99.99,,,-99.99,,2013-06-04 21:00:00,
2013-06-04 15:42:00,48.0,20.0,-100.00,West,264,16.0,39.0,33,-99.99,,,-99.99,,2013-06-04 21:42:00,
2013-06-04 15:53:00,48.0,20.0,-100.00,West,264,16.0,39.0,33,-99.99,,,-99.99,,2013-06-04 21:53:00,
2013-06-04 16:00:00,49.0,21.0,-100.00,West,259,18.0,41.0,32,-99.99,,,-99.99,,2013-06-04 22:00:00,
2013-06-04 16:42:00,49.0,21.0,-100.00,West,259,18.0,41.0,32,-99.99,,,-99.99,,2013-06-04 22:42:00,
2013-06-04 16:52:00,49.0,21.0,-100.00,West,259,18.0,41.0,32,-99.99,,,-99.99,,2013-06-04 22:52:00,
2013-06-04 17:00:00,48.0,25.0,-100.00,WSW,249,13.0,36.0,40,-99.99,,,-99.99,,2013-06-04 23:00:00,
2013-06-04 17:42:00,48.0,25.0,-100.00,WSW,249,13.0,36.0,40,-99.99,,,-99.99,,2013-06-04 23:42:00,
2013-06-04 17:52:00,48.0,25.0,-100.00,WSW,249,13.0,36.0,40,-99.99,,,-99.99,,2013-06-04 23:52:00,
2013-06-04 18:00:00,46.0,26.0,-100.00,NW,312,10.0,28.0,45,-99.99,,,-99.99,,2013-06-05 00:00:00,
2013-06-04 18:42:00,46.0,26.0,-100.00,NW,312,10.0,28.0,45,-99.99,,,-99.99,,2013-06-05 00:42:00,
2013-06-04 18:52:00,46.0,26.0,-100.00,NW,312,10.0,28.0,45,-99.99,,,-99.99,,2013-06-05 00:52:00,
2013-06-04 19:00:00,40.0,29.0,-100.00,WNW,290,11.0,40.0,63,-99.99,,,-99.99,,2013-06-05 01:00:00,
2013-06-04 19:42:00,40.0,29.0,-100.00,WNW,290,11.0,40.0,63,-99.99,,,-99.99,,2013-06-05 01:42:00,
2013-06-04 19:52:00,40.0,29.0,-100.00,WNW,290,11.0,40.0,63,-99.99,,,-99.99,,2013-06-05 01:52:00,
2013-06-04 20:00:00,44.0,24.0,-100.00,WNW,291,11.0,28.0,45,-99.99,,,-99.99,,2013-06-05 02:00:00,
2013-06-04 20:42:00,44.0,24.0,-100.00,WNW,291,11.0,28.0,45,-99.99,,,-99.99,,2013-06-05 02:42:00,
2013-06-04 20:52:00,44.0,24.0,-100.00,WNW,291,11.0,28.0,45,-99.99,,,-99.99,,2013-06-05 02:52:00,
2013-06-04 21:00:00,43.0,24.0,-100.00,NW,305,8.0,26.0,46,-99.99,,,-99.99,,2013-06-05 03:00:00,
2013-06-04 21:43:00,43.0,24.0,-100.00,NW,305,8.0,26.0,46,-99.99,,,-99.99,,2013-06-05 03:43:00,
2013-06-04 21:53:00,43.0,24.0,-100.00,NW,305,8.0,26.0,46,-99.99,,,-99.99,,2013-06-05 03:53:00,
2013-06-04 22:00:00,39.0,33.0,-100.00,SSW,194,10.0,22.0,76,-99.99,,,-99.99,,2013-06-05 04:00:00,
2013-06-04 22:42:00,39.0,33.0,-100.00,SSW,194,10.0,22.0,76,-99.99,,,-99.99,,2013-06-05 04:42:00,
2013-06-04 22:53:00,39.0,33.0,-100.00,SSW,194,10.0,22.0,76,-99.99,,,-99.99,,2013-06-05 04:53:00,
2013-06-04 23:00:00,36.0,32.0,-100.00,WSW,237,9.0,20.0,84,-99.99,,,-99.99,,2013-06-05 05:00:00,
2013-06-04 23:42:00,36.0,32.0,-100.00,WSW,237,9.0,20.0,84,-99.99,,,-99.99,,2013-06-05 05:42:00,
2013-06-04 23:52:00,36.0,32.0,-100.00,WSW,237,9.0,20.0,84,-99.99,,,-99.99,,2013-06-05 05:52:00,